Petrojarl Foinaven — C6NR7 — position and weather

sailwx.info

Track history (hours):
 
Tides and Currents Weather Stations Pressure Air Temp Water Temp Dewpoint Dewpoint Depression Visibility Wind Speed Wind Dir Waves Ship Positions

Petrojarl Foinaven

Last reported at 2018-May-27 02:00 UTC. Time now 2018-May-27 03:36 UTC.
Position N 60°18' W 004°12'.

Wind from 130

Waves 0.9 meters (3 feet)

Barometer 1031.0 mb
Visibility: greater than 5.4 NM

Date/timePositionNaut miles runAvg speedWind from/ knotsBaromVisibWave heightAir tempDewpointWater temp
2018-May-27 02:00N 60°18' W 004°12'0 0.0 130 1031.0 5.4 0.9
2018-May-27 01:00N 60°18' W 004°12'0 0.0 130 1031.5 5.4 0.9
2018-May-27 00:00N 60°18' W 004°12'0 0.0 130 1032.0 5.4 1.0
2018-May-26 23:00N 60°18' W 004°12'0 0.0 130 1032.4 5.4 1.0
2018-May-26 22:00N 60°18' W 004°12'0 0.0 130 1032.6 5.4 1.0
2018-May-26 21:00N 60°18' W 004°12'0 0.0 130 1032.6 5.4 1.0
2018-May-26 20:00N 60°18' W 004°12'0 0.0 130 1032.6 5.4 1.0
2018-May-26 19:00N 60°18' W 004°12'0 0.0 140 1032.6 5.4 1.0
2018-May-26 18:00N 60°18' W 004°12'0 0.0 130 1032.8 5.4 1.0
2018-May-26 17:00N 60°18' W 004°12'0 0.0 130 1033.2 5.4 1.1
2018-May-26 16:00N 60°18' W 004°12'0 0.0 130 1033.4 5.4 1.0
2018-May-26 15:00N 60°18' W 004°12'0 0.0 130 1033.8 5.4 1.0
2018-May-26 14:00N 60°18' W 004°12'0 0.0 130 1034.1 5.4 1.0
2018-May-26 13:00N 60°18' W 004°12'0 0.0 120 1034.5 5.4 1.0
2018-May-26 12:00N 60°18' W 004°12'0 0.0 110 1034.6 5.4 1.1
2018-May-26 11:00N 60°18' W 004°12'0 0.0 130 1034.5 5.4 1.2
2018-May-26 10:00N 60°18' W 004°12'0 0.0 120 1034.2 5.4 1.3
2018-May-26 09:00N 60°18' W 004°12'0 0.0 130 1034.0 5.4 1.2
2018-May-26 08:00N 60°18' W 004°12'0 0.0 120 1034.0 5.4 1.3
2018-May-26 07:00N 60°18' W 004°12'0 0.0 120 1034.0 5.4 1.3
2018-May-26 06:00N 60°18' W 004°12'0 0.0 110 1033.9 5.4 1.4
2018-May-26 05:00N 60°18' W 004°12'0 0.0 110 1033.9 5.4
2018-May-26 04:00N 60°18' W 004°12'0 0.0 100 1033.7 5.4 1.4
2018-May-26 03:00N 60°18' W 004°12'0 0.0 100 1033.8 5.4 1.5
2018-May-26 02:00N 60°18' W 004°12'0 0.0 080 1034.2 5.4 1.4
2018-May-26 01:00N 60°18' W 004°12'0 0.0 090 1034.1 5.4 1.6
2018-May-26 00:00N 60°18' W 004°12'0 0.0 090 1034.0 5.4 1.6
2018-May-25 23:00N 60°18' W 004°12'0 0.0 070 1034.1 5.4 1.7
2018-May-25 22:00N 60°18' W 004°12'0 0.0 060 1034.1 5.4 1.8
2018-May-25 21:00N 60°18' W 004°12'0 0.0 060 1034.1 5.4 1.8
2018-May-25 20:00N 60°18' W 004°12'0 0.0 060 1033.5 5.4 1.7
2018-May-25 19:00N 60°18' W 004°12'0 0.0 060 1033.2 5.4 1.8
2018-May-25 18:00N 60°18' W 004°12'0 0.0 050 1033.1 5.4 1.9
2018-May-25 17:00N 60°18' W 004°12'0 0.0 050 1033.0 5.4 1.7
2018-May-25 16:00N 60°18' W 004°12'0 0.0 040 1033.0 5.4 1.7
2018-May-25 15:00N 60°18' W 004°12'0 0.0 020 1033.0 5.4 1.6
2018-May-25 14:00N 60°18' W 004°12'0 0.0 020 1032.7 5.4 1.5
2018-May-25 13:00N 60°18' W 004°12'0 0.0 020 1032.2 5.4 1.5
2018-May-25 12:00N 60°18' W 004°12'0 0.0 020 1031.9 5.4 1.6
2018-May-25 11:00N 60°18' W 004°12'0 0.0 340 1031.4 5.4 1.6
2018-May-25 10:00N 60°18' W 004°12'0 0.0 360 1031.0 5.4 1.4
2018-May-25 09:00N 60°18' W 004°12'0 0.0 360 1030.5 5.4 1.4
2018-May-25 08:00N 60°18' W 004°12'0 0.0 010 1029.7 5.4 1.5
2018-May-25 07:00N 60°18' W 004°12'0 0.0 360 1028.8 5.4 1.4
2018-May-25 06:00N 60°18' W 004°12'0 0.0 340 1028.0 5.4 1.4
2018-May-25 05:00N 60°18' W 004°12'0 0.0 330 1027.3 5.4 1.6
2018-May-25 04:00N 60°18' W 004°12'0 0.0 300 1026.7 2.2 1.8
2018-May-25 03:00N 60°18' W 004°12'0 0.0 280 1026.3 5.4 1.8
2018-May-25 02:00N 60°18' W 004°12'0 0.0 290 1025.9 5.4 1.9
2018-May-25 01:00N 60°18' W 004°12'0 0.0 290 1025.4 5.4 1.8
2018-May-25 00:00N 60°18' W 004°12'0 0.0 270 1025.2 2.2 1.8
2018-May-24 23:00N 60°18' W 004°12'0 0.0 260 1024.9 2.2 1.7
2018-May-24 22:00N 60°18' W 004°12'0 0.0 220 1024.4 2.2
2018-May-24 21:00N 60°18' W 004°12'0 0.0 210 1024.3 2.2 1.9
2018-May-24 20:00N 60°18' W 004°12'0 0.0 210 1024.0 2.2 2.1
2018-May-24 19:00N 60°18' W 004°12'0 0.0 200 1023.8 2.2 2.1
2018-May-24 18:00N 60°18' W 004°12'0 0.0 190 1023.4 2.2 2.0
2018-May-24 17:00N 60°18' W 004°12'0 0.0 160 1023.1 5.4 2.1
2018-May-24 16:00N 60°18' W 004°12'0 0.0 150 1023.3 5.4 2.2
2018-May-24 15:00N 60°18' W 004°12'0 0.0 150 1023.8 2.2 2.2
2018-May-24 14:00N 60°18' W 004°12'0 0.0 160 1023.8 2.2 2.3
2018-May-24 13:00N 60°18' W 004°12'0 0.0 180 1024.3 1.1 2.1
2018-May-24 12:00N 60°18' W 004°12'0 0.0 180 1024.6 0.3 2.2
2018-May-24 11:00N 60°18' W 004°12'0 0.0 150 1024.7 0.3 2.1
2018-May-24 10:00N 60°18' W 004°12'0 0.0 140 1024.8 0.3 2.0
2018-May-24 09:00N 60°18' W 004°12'0 0.0 150 1024.8 0.3 2.2
2018-May-24 08:00N 60°18' W 004°12'0 0.0 150 1025.0 0.1 2.5
2018-May-24 07:00N 60°18' W 004°12'0 0.0 180 1024.8 0.1 2.2
2018-May-24 06:00N 60°18' W 004°12'0 0.0 150 1024.7 0.1 2.4
2018-May-24 05:00N 60°18' W 004°12'0 0.0 140 1024.9 0.1 2.2
2018-May-24 04:00N 60°18' W 004°12'0 0.0 140 1025.1 0.1 2.2
2018-May-24 03:00N 60°18' W 004°12'0 0.0 140 1025.2 5.4 2.3
2018-May-24 02:00N 60°18' W 004°12'0 0.0 150 1025.9 5.4 2.1
2018-May-24 01:00N 60°18' W 004°12'0 0.0 150 1026.3 5.4 2.2
2018-May-24 00:00N 60°18' W 004°12'0 0.0 150 1026.6 5.4 2.1
2018-May-23 23:00N 60°18' W 004°12'0 0.0 150 1026.8 5.4 2.2
2018-May-23 22:00N 60°18' W 004°12'0 0.0 140 1027.0 5.4 2.0
2018-May-23 21:00N 60°18' W 004°12'0 0.0 140 1027.0 5.4 2.2
2018-May-23 20:00N 60°18' W 004°12'0 0.0 130 1027.1 5.4 1.9
2018-May-23 19:00N 60°18' W 004°12'0 0.0 140 1027.2 5.4 2.0
2018-May-23 18:00N 60°18' W 004°12'0 0.0 140 1027.1 5.4 2.0
2018-May-23 17:00N 60°18' W 004°12'0 0.0 140 1027.4 5.4 1.9
2018-May-23 16:00N 60°18' W 004°12'0 0.0 140 1027.6 5.4 2.0
2018-May-23 15:00N 60°18' W 004°12'0 0.0 140 1027.8 5.4 1.8
2018-May-23 14:00N 60°18' W 004°12'0 0.0 150 1027.910.8 1.5
2018-May-23 13:00N 60°18' W 004°12'0 0.0 140 1028.010.8 1.5
2018-May-23 12:00N 60°18' W 004°12'0 0.0 170 1027.910.8 1.2
2018-May-23 11:00N 60°18' W 004°12'0 0.0 160 1028.210.8 1.2
2018-May-23 10:00N 60°18' W 004°12'0 0.0 190 1028.310.8 1.0
2018-May-23 09:00N 60°18' W 004°12'0 0.0 150 1028.110.8 1.1
2018-May-23 08:00N 60°18' W 004°12'0 0.0 150 1027.9 5.4 1.0
2018-May-23 07:00N 60°18' W 004°12'0 0.0 170 1027.7 5.4 1.0
2018-May-23 06:00N 60°18' W 004°12'0 0.0 170 1027.5 5.4 1.0
2018-May-23 05:00N 60°18' W 004°12'0 0.0 150 1027.2 5.4 1.1
2018-May-23 04:00N 60°18' W 004°12'0 0.0 150 1027.0 5.4 1.3
2018-May-23 03:00N 60°18' W 004°12'0 0.0 170 1027.3 5.4 1.1
2018-May-23 02:00N 60°18' W 004°12'0 0.0 160 1027.4 5.4 1.2
2018-May-23 01:00N 60°18' W 004°12'0 0.0 130 1027.5 5.4 1.2
2018-May-23 00:00N 60°18' W 004°12'0 0.0 110 1027.510.8 1.3
2018-May-22 23:00N 60°18' W 004°12'0 0.0 100 1027.610.8 1.2
2018-May-22 22:00N 60°18' W 004°12'0 0.0 100 1028.010.8 1.2
2018-May-22 21:00N 60°18' W 004°12'0 0.0 100 1028.210.8 1.2
2018-May-22 20:00N 60°18' W 004°12'0 0.0 100 1028.310.8 1.3
2018-May-22 19:00N 60°18' W 004°12'0 0.0 110 1028.010.8 1.2
2018-May-22 18:00N 60°18' W 004°12'0 0.0 100 1027.910.8 1.3
2018-May-22 17:00N 60°18' W 004°12'0 0.0 100 1027.910.8 1.4
2018-May-22 16:00N 60°18' W 004°12'0 0.0 090 1028.110.8 1.4
2018-May-22 15:00N 60°18' W 004°12'0 0.0 100 1028.410.8 1.3
2018-May-22 14:00N 60°18' W 004°12'0 0.0 090 1028.510.8
2018-May-22 13:00N 60°18' W 004°12'0 0.0 100 1028.810.8 1.5
2018-May-22 12:00N 60°18' W 004°12'0 0.0 090 1028.7 5.4 1.5
2018-May-22 11:00N 60°18' W 004°12'0 0.0 080 1028.3 5.4 1.6
2018-May-22 10:00N 60°18' W 004°12'0 0.0 070 1028.510.8 1.8
2018-May-22 09:00N 60°18' W 004°12'0 0.0 080 1028.2 5.4 1.9
2018-May-22 08:00N 60°18' W 004°12'0 0.0 070 1028.4 5.4 1.8
2018-May-22 07:00N 60°18' W 004°12'0 0.0 050 1028.1 5.4 2.0
2018-May-22 06:00N 60°18' W 004°12'0 0.0 040 1027.7 5.4 2.0
2018-May-22 05:00N 60°18' W 004°12'0 0.0 030 1027.4 2.2 1.7
2018-May-22 04:00N 60°18' W 004°12'0 0.0 010 1027.3 5.4 1.6
2018-May-22 03:00N 60°18' W 004°12'0 0.0 290 1027.010.8 1.8
2018-May-22 02:00N 60°18' W 004°12'0 0.0 270 1026.710.8 1.8
2018-May-22 01:00N 60°18' W 004°12'0 0.0 260 1026.710.8 1.7
2018-May-22 00:00N 60°18' W 004°12'0 0.0 250 1026.410.8 1.8
2018-May-21 23:00N 60°18' W 004°12'0 0.0 260 1026.110.8 1.8
2018-May-21 22:00N 60°18' W 004°12'0 0.0 260 1025.710.8 1.7
2018-May-21 21:00N 60°18' W 004°12'0 0.0 360 1025.210.8
2018-May-21 20:00N 60°18' W 004°12'0 0.0 030 1024.810.8 1.9
2018-May-21 19:00N 60°18' W 004°12'0 0.0 040 1024.010.8 2.0
2018-May-21 18:00N 60°18' W 004°12'0 0.0 040 1023.6 5.4 2.2
2018-May-21 17:00N 60°18' W 004°12'0 0.0 030 1023.0 5.4 2.2
2018-May-21 16:00N 60°18' W 004°12'0 0.0 020 1022.4 5.4 2.3
2018-May-21 15:00N 60°18' W 004°12'0 0.0 030 1022.0 2.2 2.1
2018-May-21 14:00N 60°18' W 004°12'0 0.0 010 1021.7 5.4 2.3
2018-May-21 13:00N 60°18' W 004°12'0 0.0 020 1021.4 5.4 2.2
2018-May-21 12:00N 60°18' W 004°12'0 0.0 010 1020.7 2.2 2.2
2018-May-21 11:00N 60°18' W 004°12'0 0.0 040 1020.2 2.2 2.3
2018-May-21 10:00N 60°18' W 004°12'0 0.0 030 1020.3 5.4 2.6
2018-May-21 09:00N 60°18' W 004°12'0 0.0 350 1020.1 5.4 2.5
2018-May-21 08:00N 60°18' W 004°12'0 0.0 030 1019.9 5.4 2.6
2018-May-21 07:00N 60°18' W 004°12'0 0.0 050 1019.4 5.4 2.6
2018-May-21 06:00N 60°18' W 004°12'0 0.0 010 1019.1 5.4 2.6
2018-May-21 05:00N 60°18' W 004°12'0 0.0 010 1018.4 5.4 2.6
2018-May-21 04:00N 60°18' W 004°12'0 0.0 360 1018.0 5.4 2.3
2018-May-21 03:00N 60°18' W 004°12'0 0.0 330 1017.4 5.4 2.4
2018-May-21 02:00N 60°18' W 004°12'0 0.0 320 1017.6 5.4 2.1
2018-May-21 01:00N 60°18' W 004°12'0 0.0 320 1017.410.8 2.3
2018-May-21 00:00N 60°18' W 004°12'0 0.0 310 1017.2 5.4 2.4
2018-May-20 23:00N 60°18' W 004°12'0 0.0 300 1016.710.8 2.2
2018-May-20 22:00N 60°18' W 004°12'0 0.0 310 1016.010.8 2.4
2018-May-20 21:00N 60°18' W 004°12'0 0.0 310 1015.310.8 2.4
2018-May-20 20:00N 60°18' W 004°12'0 0.0 310 1014.510.8 2.3
2018-May-20 19:00N 60°18' W 004°12'0 0.0 310 1013.510.8 2.3
2018-May-20 18:00N 60°18' W 004°12'0 0.0 360 1012.8 5.4 2.5
2018-May-20 17:00N 60°18' W 004°12'0 0.0 240 1011.9 2.2 2.4
2018-May-20 16:00N 60°18' W 004°12'0 0.0 230 1011.5 2.2 2.3
2018-May-20 15:00N 60°18' W 004°12'0 0.0 190 1011.1 2.2 2.4
2018-May-20 14:00N 60°18' W 004°12'0 0.0 190 1011.0 1.1 2.4
2018-May-20 13:00N 60°18' W 004°12'0 0.0 190 1010.8 1.1 2.5
2018-May-20 12:00N 60°18' W 004°12'0 0.0 190 1010.6 1.1 2.6
2018-May-20 11:00N 60°18' W 004°12'0 0.0 200 1010.3 1.1 2.9
2018-May-20 10:00N 60°18' W 004°12'0 0.0 200 1010.1 0.5 2.8
2018-May-20 09:00N 60°18' W 004°12'0 0.0 220 1010.4 2.2 2.9
2018-May-20 08:00N 60°18' W 004°12'0 0.0 220 1009.9 2.2 3.2
2018-May-20 07:00N 60°18' W 004°12'0 0.0 200 1009.7 2.2 3.2
2018-May-20 06:00N 60°18' W 004°12'0 0.0 190 1008.9 1.1 2.9
2018-May-20 05:00N 60°18' W 004°12'0 0.0 190 1008.3 2.2 2.7
2018-May-20 04:00N 60°18' W 004°12'0 0.0 180 1008.0 2.2 2.5
2018-May-20 03:00N 60°18' W 004°12'0 0.0 180 1007.9 2.2 2.3
2018-May-20 02:00N 60°18' W 004°12'0 0.0 170 1008.4 2.2 2.4
2018-May-20 01:00N 60°18' W 004°12'0 0.0 170 1008.9 2.2 2.3
2018-May-20 00:00N 60°18' W 004°12'0 0.0 220 1009.1 2.2 2.3
2018-May-19 23:00N 60°18' W 004°12'0 0.0 200 1009.7 2.2 2.2
2018-May-19 22:00N 60°18' W 004°12'0 0.0 190 1009.8 5.4 2.4
2018-May-19 21:00N 60°18' W 004°12'0 0.0 230 1010.4 5.4 2.5
2018-May-19 20:00N 60°18' W 004°12'0 0.0 190 1010.7 5.4 2.7
2018-May-19 19:00N 60°18' W 004°12'0 0.0 180 1011.1 5.4 2.5
2018-May-19 18:00N 60°18' W 004°12'0 0.0 190 1011.4 5.4
2018-May-19 17:00N 60°18' W 004°12'0 0.0 200 1012.8 5.4 2.7
2018-May-19 16:00N 60°18' W 004°12'0 0.0 220 1013.3 5.4 2.8
2018-May-19 15:00N 60°18' W 004°12'0 0.0 220 1013.9 5.4 2.7
2018-May-19 14:00N 60°18' W 004°12'0 0.0 210 1014.3 5.4 2.5
2018-May-19 13:00N 60°18' W 004°12'0 0.0 200 1014.8 5.4 2.5
2018-May-19 12:00N 60°18' W 004°12'0 0.0 190 1015.3 5.4 2.2
2018-May-19 11:00N 60°18' W 004°12'0 0.0 190 1016.0 5.4 2.2
2018-May-19 10:00N 60°18' W 004°12'0 0.0 200 1016.5 5.4 2.1
2018-May-19 09:00N 60°18' W 004°12'0 0.0 210 1017.1 5.4 2.1
2018-May-19 08:00N 60°18' W 004°12'0 0.0 200 1017.5 5.4 1.9
2018-May-19 07:00N 60°18' W 004°12'0 0.0 200 1018.0 1.1 1.9
2018-May-19 06:00N 60°18' W 004°12'0 0.0 200 1018.1 5.4 2.0
2018-May-19 05:00N 60°18' W 004°12'0 0.0 210 1018.2 2.2 1.8
2018-May-19 04:00N 60°18' W 004°12'0 0.0 170 1018.3 2.2 1.5
2018-May-19 03:00N 60°18' W 004°12'0 0.0 170 1018.4 2.2 1.5
2018-May-19 02:00N 60°18' W 004°12'0 0.0 010 1019.5 1.1 1.6
2018-May-19 01:00N 60°18' W 004°12'0 0.0 250 1019.9 0.3 1.5
2018-May-19 00:00N 60°18' W 004°12'0 0.0 250 1020.0 2.2 1.5
2018-May-18 23:00N 60°18' W 004°12'0 0.0 220 1020.1 5.4 1.7
2018-May-18 22:00N 60°18' W 004°12'0 0.0 150 1020.3 2.2 2.5
2018-May-18 21:00N 60°18' W 004°12'0 0.0 350 1020.4 1.1 2.5
2018-May-18 20:00N 60°18' W 004°12'0 0.0 280 1020.6 1.1 2.2
2018-May-18 19:00N 60°18' W 004°12'0 0.0 240 1020.3 0.3
2018-May-18 18:00N 60°18' W 004°12'0 0.0 240 1020.2 1.1 2.2
2018-May-18 17:00N 60°18' W 004°12'0 0.0 240 1020.4 2.2 2.0
2018-May-18 16:00N 60°18' W 004°12'0 0.0 240 1020.2 5.4 2.1
2018-May-18 15:00N 60°18' W 004°12'0 0.0 240 1020.3 5.4 1.9
2018-May-18 14:00N 60°18' W 004°12'0 0.0 230 1020.4 5.4 1.9
2018-May-18 13:00N 60°18' W 004°12'0 0.0 230 1020.4 5.4 1.7
2018-May-18 12:00N 60°18' W 004°12'0 0.0 220 1020.2 5.4 1.6
2018-May-18 11:00N 60°18' W 004°12'0 0.0 240 1020.4 5.4 1.6
2018-May-18 10:00N 60°18' W 004°12'0 0.0 230 1020.5 5.4 1.6
2018-May-18 09:00N 60°18' W 004°12'0 0.0 210 1020.4 5.4 1.7
2018-May-18 08:00N 60°18' W 004°12'0 0.0 200 1020.6 5.4 1.6
2018-May-18 07:00N 60°18' W 004°12'0 0.0 190 1020.7 5.4 1.7
2018-May-18 06:00N 60°18' W 004°12'0 0.0 200 1021.1 5.4 1.8
2018-May-18 05:00N 60°18' W 004°12'0 0.0 190 1021.4 5.4 1.8
2018-May-18 04:00N 60°18' W 004°12'0 0.0 190 1021.9 5.4 1.7
2018-May-18 03:00N 60°18' W 004°12'0 0.0 190 1022.3 5.4 1.8
2018-May-18 02:00N 60°18' W 004°12'0 0.0 180 1022.8 5.4 1.6
2018-May-18 01:00N 60°18' W 004°12'0 0.0 180 1023.4 5.4 1.6
2018-May-18 00:00N 60°18' W 004°12'0 0.0 190 1024.1 5.4 1.5
2018-May-17 23:00N 60°18' W 004°12'0 0.0 150 1024.7 5.4 1.5
2018-May-17 22:00N 60°18' W 004°12'0 0.0 150 1025.4 5.4
2018-May-17 21:00N 60°18' W 004°12'0 0.0 160 1025.8 5.4 1.6
2018-May-17 20:00N 60°18' W 004°12'0 0.0 170 1026.2 5.4 1.8
2018-May-17 19:00N 60°18' W 004°12'0 0.0 160 1026.5 5.4 1.8
2018-May-17 18:00N 60°18' W 004°12'0 0.0 160 1027.1 5.4 1.9
2018-May-17 17:00N 60°18' W 004°12'0 0.0 190 1027.6 5.4 1.9
2018-May-17 16:00N 60°18' W 004°12'0 0.0 210 1027.9 5.4 1.9
2018-May-17 15:00N 60°18' W 004°12'0 0.0 230 1028.2 5.4 2.0
2018-May-17 14:00N 60°18' W 004°12'0 0.0 220 1028.4 5.4 2.1
2018-May-17 13:00N 60°18' W 004°12'0 0.0 220 1028.4 5.4 2.1
2018-May-17 12:00N 60°18' W 004°12'0 0.0 230 1028.6 5.4 1.9
2018-May-17 11:00N 60°18' W 004°12'0 0.0 260 1029.2 5.4 2.0
2018-May-17 10:00N 60°18' W 004°12'0 0.0 300 1029.3 5.4 2.0
2018-May-17 09:00N 60°18' W 004°12'0 0.0 300 1029.5 5.4 2.0
2018-May-17 08:00N 60°18' W 004°12'0 0.0 290 1029.3 5.4 1.8
2018-May-17 07:00N 60°18' W 004°12'0 0.0 300 1029.1 5.4 1.8
2018-May-17 06:00N 60°18' W 004°12'0 0.0 330 1028.9 5.4 1.8
2018-May-17 05:00N 60°18' W 004°12'0 0.0 310 1028.7 5.4 1.9
2018-May-17 04:00N 60°18' W 004°12'0 0.0 300 1028.8 5.4 2.1
2018-May-17 03:00N 60°18' W 004°12'0 0.0 310 1028.8 5.4 1.9
2018-May-17 02:00N 60°18' W 004°12'   300 1029.1 5.4 1.8
Track history (hours):
 
Tides and Currents Weather Stations Pressure Air Temp Water Temp Dewpoint Dewpoint Depression Visibility Wind Speed Wind Dir Waves Ship Positions

Petrojarl Foinaven

Last reported at 2018-May-27 02:00 UTC. Time now 2018-May-27 03:36 UTC.
Position N 60°18' W 004°12'.

Wind from 130

Waves 0.9 meters (3 feet)

Barometer 1031.0 mb
Visibility: greater than 5.4 NM

Date/timePositionNaut miles runAvg speedWind from/ knotsBaromVisibWave heightAir tempDewpointWater temp
2018-May-27 02:00N 60°18' W 004°12'0 0.0 130 1031.0 5.4 0.9
2018-May-27 01:00N 60°18' W 004°12'0 0.0 130 1031.5 5.4 0.9
2018-May-27 00:00N 60°18' W 004°12'0 0.0 130 1032.0 5.4 1.0
2018-May-26 23:00N 60°18' W 004°12'0 0.0 130 1032.4 5.4 1.0
2018-May-26 22:00N 60°18' W 004°12'0 0.0 130 1032.6 5.4 1.0
2018-May-26 21:00N 60°18' W 004°12'0 0.0 130 1032.6 5.4 1.0
2018-May-26 20:00N 60°18' W 004°12'0 0.0 130 1032.6 5.4 1.0
2018-May-26 19:00N 60°18' W 004°12'0 0.0 140 1032.6 5.4 1.0
2018-May-26 18:00N 60°18' W 004°12'0 0.0 130 1032.8 5.4 1.0
2018-May-26 17:00N 60°18' W 004°12'0 0.0 130 1033.2 5.4 1.1
2018-May-26 16:00N 60°18' W 004°12'0 0.0 130 1033.4 5.4 1.0
2018-May-26 15:00N 60°18' W 004°12'0 0.0 130 1033.8 5.4 1.0
2018-May-26 14:00N 60°18' W 004°12'0 0.0 130 1034.1 5.4 1.0
2018-May-26 13:00N 60°18' W 004°12'0 0.0 120 1034.5 5.4 1.0
2018-May-26 12:00N 60°18' W 004°12'0 0.0 110 1034.6 5.4 1.1
2018-May-26 11:00N 60°18' W 004°12'0 0.0 130 1034.5 5.4 1.2
2018-May-26 10:00N 60°18' W 004°12'0 0.0 120 1034.2 5.4 1.3
2018-May-26 09:00N 60°18' W 004°12'0 0.0 130 1034.0 5.4 1.2
2018-May-26 08:00N 60°18' W 004°12'0 0.0 120 1034.0 5.4 1.3
2018-May-26 07:00N 60°18' W 004°12'0 0.0 120 1034.0 5.4 1.3
2018-May-26 06:00N 60°18' W 004°12'0 0.0 110 1033.9 5.4 1.4
2018-May-26 05:00N 60°18' W 004°12'0 0.0 110 1033.9 5.4
2018-May-26 04:00N 60°18' W 004°12'0 0.0 100 1033.7 5.4 1.4
2018-May-26 03:00N 60°18' W 004°12'0 0.0 100 1033.8 5.4 1.5
2018-May-26 02:00N 60°18' W 004°12'0 0.0 080 1034.2 5.4 1.4
2018-May-26 01:00N 60°18' W 004°12'0 0.0 090 1034.1 5.4 1.6
2018-May-26 00:00N 60°18' W 004°12'0 0.0 090 1034.0 5.4 1.6
2018-May-25 23:00N 60°18' W 004°12'0 0.0 070 1034.1 5.4 1.7
2018-May-25 22:00N 60°18' W 004°12'0 0.0 060 1034.1 5.4 1.8
2018-May-25 21:00N 60°18' W 004°12'0 0.0 060 1034.1 5.4 1.8
2018-May-25 20:00N 60°18' W 004°12'0 0.0 060 1033.5 5.4 1.7
2018-May-25 19:00N 60°18' W 004°12'0 0.0 060 1033.2 5.4 1.8
2018-May-25 18:00N 60°18' W 004°12'0 0.0 050 1033.1 5.4 1.9
2018-May-25 17:00N 60°18' W 004°12'0 0.0 050 1033.0 5.4 1.7
2018-May-25 16:00N 60°18' W 004°12'0 0.0 040 1033.0 5.4 1.7
2018-May-25 15:00N 60°18' W 004°12'0 0.0 020 1033.0 5.4 1.6
2018-May-25 14:00N 60°18' W 004°12'0 0.0 020 1032.7 5.4 1.5
2018-May-25 13:00N 60°18' W 004°12'0 0.0 020 1032.2 5.4 1.5
2018-May-25 12:00N 60°18' W 004°12'0 0.0 020 1031.9 5.4 1.6
2018-May-25 11:00N 60°18' W 004°12'0 0.0 340 1031.4 5.4 1.6
2018-May-25 10:00N 60°18' W 004°12'0 0.0 360 1031.0 5.4 1.4
2018-May-25 09:00N 60°18' W 004°12'0 0.0 360 1030.5 5.4 1.4
2018-May-25 08:00N 60°18' W 004°12'0 0.0 010 1029.7 5.4 1.5
2018-May-25 07:00N 60°18' W 004°12'0 0.0 360 1028.8 5.4 1.4
2018-May-25 06:00N 60°18' W 004°12'0 0.0 340 1028.0 5.4 1.4
2018-May-25 05:00N 60°18' W 004°12'0 0.0 330 1027.3 5.4 1.6
2018-May-25 04:00N 60°18' W 004°12'0 0.0 300 1026.7 2.2 1.8
2018-May-25 03:00N 60°18' W 004°12'0 0.0 280 1026.3 5.4 1.8
2018-May-25 02:00N 60°18' W 004°12'0 0.0 290 1025.9 5.4 1.9
2018-May-25 01:00N 60°18' W 004°12'0 0.0 290 1025.4 5.4 1.8
2018-May-25 00:00N 60°18' W 004°12'0 0.0 270 1025.2 2.2 1.8
2018-May-24 23:00N 60°18' W 004°12'0 0.0 260 1024.9 2.2 1.7
2018-May-24 22:00N 60°18' W 004°12'0 0.0 220 1024.4 2.2
2018-May-24 21:00N 60°18' W 004°12'0 0.0 210 1024.3 2.2 1.9
2018-May-24 20:00N 60°18' W 004°12'0 0.0 210 1024.0 2.2 2.1
2018-May-24 19:00N 60°18' W 004°12'0 0.0 200 1023.8 2.2 2.1
2018-May-24 18:00N 60°18' W 004°12'0 0.0 190 1023.4 2.2 2.0
2018-May-24 17:00N 60°18' W 004°12'0 0.0 160 1023.1 5.4 2.1
2018-May-24 16:00N 60°18' W 004°12'0 0.0 150 1023.3 5.4 2.2
2018-May-24 15:00N 60°18' W 004°12'0 0.0 150 1023.8 2.2 2.2
2018-May-24 14:00N 60°18' W 004°12'0 0.0 160 1023.8 2.2 2.3
2018-May-24 13:00N 60°18' W 004°12'0 0.0 180 1024.3 1.1 2.1
2018-May-24 12:00N 60°18' W 004°12'0 0.0 180 1024.6 0.3 2.2
2018-May-24 11:00N 60°18' W 004°12'0 0.0 150 1024.7 0.3 2.1
2018-May-24 10:00N 60°18' W 004°12'0 0.0 140 1024.8 0.3 2.0
2018-May-24 09:00N 60°18' W 004°12'0 0.0 150 1024.8 0.3 2.2
2018-May-24 08:00N 60°18' W 004°12'0 0.0 150 1025.0 0.1 2.5
2018-May-24 07:00N 60°18' W 004°12'0 0.0 180 1024.8 0.1 2.2
2018-May-24 06:00N 60°18' W 004°12'0 0.0 150 1024.7 0.1 2.4
2018-May-24 05:00N 60°18' W 004°12'0 0.0 140 1024.9 0.1 2.2
2018-May-24 04:00N 60°18' W 004°12'0 0.0 140 1025.1 0.1 2.2
2018-May-24 03:00N 60°18' W 004°12'0 0.0 140 1025.2 5.4 2.3
2018-May-24 02:00N 60°18' W 004°12'0 0.0 150 1025.9 5.4 2.1
2018-May-24 01:00N 60°18' W 004°12'0 0.0 150 1026.3 5.4 2.2
2018-May-24 00:00N 60°18' W 004°12'0 0.0 150 1026.6 5.4 2.1
2018-May-23 23:00N 60°18' W 004°12'0 0.0 150 1026.8 5.4 2.2
2018-May-23 22:00N 60°18' W 004°12'0 0.0 140 1027.0 5.4 2.0
2018-May-23 21:00N 60°18' W 004°12'0 0.0 140 1027.0 5.4 2.2
2018-May-23 20:00N 60°18' W 004°12'0 0.0 130 1027.1 5.4 1.9
2018-May-23 19:00N 60°18' W 004°12'0 0.0 140 1027.2 5.4 2.0
2018-May-23 18:00N 60°18' W 004°12'0 0.0 140 1027.1 5.4 2.0
2018-May-23 17:00N 60°18' W 004°12'0 0.0 140 1027.4 5.4 1.9
2018-May-23 16:00N 60°18' W 004°12'0 0.0 140 1027.6 5.4 2.0
2018-May-23 15:00N 60°18' W 004°12'0 0.0 140 1027.8 5.4 1.8
2018-May-23 14:00N 60°18' W 004°12'0 0.0 150 1027.910.8 1.5
2018-May-23 13:00N 60°18' W 004°12'0 0.0 140 1028.010.8 1.5
2018-May-23 12:00N 60°18' W 004°12'0 0.0 170 1027.910.8 1.2
2018-May-23 11:00N 60°18' W 004°12'0 0.0 160 1028.210.8 1.2
2018-May-23 10:00N 60°18' W 004°12'0 0.0 190 1028.310.8 1.0
2018-May-23 09:00N 60°18' W 004°12'0 0.0 150 1028.110.8 1.1
2018-May-23 08:00N 60°18' W 004°12'0 0.0 150 1027.9 5.4 1.0
2018-May-23 07:00N 60°18' W 004°12'0 0.0 170 1027.7 5.4 1.0
2018-May-23 06:00N 60°18' W 004°12'0 0.0 170 1027.5 5.4 1.0
2018-May-23 05:00N 60°18' W 004°12'0 0.0 150 1027.2 5.4 1.1
2018-May-23 04:00N 60°18' W 004°12'0 0.0 150 1027.0 5.4 1.3
2018-May-23 03:00N 60°18' W 004°12'0 0.0 170 1027.3 5.4 1.1
2018-May-23 02:00N 60°18' W 004°12'0 0.0 160 1027.4 5.4 1.2
2018-May-23 01:00N 60°18' W 004°12'0 0.0 130 1027.5 5.4 1.2
2018-May-23 00:00N 60°18' W 004°12'0 0.0 110 1027.510.8 1.3
2018-May-22 23:00N 60°18' W 004°12'0 0.0 100 1027.610.8 1.2
2018-May-22 22:00N 60°18' W 004°12'0 0.0 100 1028.010.8 1.2
2018-May-22 21:00N 60°18' W 004°12'0 0.0 100 1028.210.8 1.2
2018-May-22 20:00N 60°18' W 004°12'0 0.0 100 1028.310.8 1.3
2018-May-22 19:00N 60°18' W 004°12'0 0.0 110 1028.010.8 1.2
2018-May-22 18:00N 60°18' W 004°12'0 0.0 100 1027.910.8 1.3
2018-May-22 17:00N 60°18' W 004°12'0 0.0 100 1027.910.8 1.4
2018-May-22 16:00N 60°18' W 004°12'0 0.0 090 1028.110.8 1.4
2018-May-22 15:00N 60°18' W 004°12'0 0.0 100 1028.410.8 1.3
2018-May-22 14:00N 60°18' W 004°12'0 0.0 090 1028.510.8
2018-May-22 13:00N 60°18' W 004°12'0 0.0 100 1028.810.8 1.5
2018-May-22 12:00N 60°18' W 004°12'0 0.0 090 1028.7 5.4 1.5
2018-May-22 11:00N 60°18' W 004°12'0 0.0 080 1028.3 5.4 1.6
2018-May-22 10:00N 60°18' W 004°12'0 0.0 070 1028.510.8 1.8
2018-May-22 09:00N 60°18' W 004°12'0 0.0 080 1028.2 5.4 1.9
2018-May-22 08:00N 60°18' W 004°12'0 0.0 070 1028.4 5.4 1.8
2018-May-22 07:00N 60°18' W 004°12'0 0.0 050 1028.1 5.4 2.0
2018-May-22 06:00N 60°18' W 004°12'0 0.0 040 1027.7 5.4 2.0
2018-May-22 05:00N 60°18' W 004°12'0 0.0 030 1027.4 2.2 1.7
2018-May-22 04:00N 60°18' W 004°12'0 0.0 010 1027.3 5.4 1.6
2018-May-22 03:00N 60°18' W 004°12'0 0.0 290 1027.010.8 1.8
2018-May-22 02:00N 60°18' W 004°12'0 0.0 270 1026.710.8 1.8
2018-May-22 01:00N 60°18' W 004°12'0 0.0 260 1026.710.8 1.7
2018-May-22 00:00N 60°18' W 004°12'0 0.0 250 1026.410.8 1.8
2018-May-21 23:00N 60°18' W 004°12'0 0.0 260 1026.110.8 1.8
2018-May-21 22:00N 60°18' W 004°12'0 0.0 260 1025.710.8 1.7
2018-May-21 21:00N 60°18' W 004°12'0 0.0 360 1025.210.8
2018-May-21 20:00N 60°18' W 004°12'0 0.0 030 1024.810.8 1.9
2018-May-21 19:00N 60°18' W 004°12'0 0.0 040 1024.010.8 2.0
2018-May-21 18:00N 60°18' W 004°12'0 0.0 040 1023.6 5.4 2.2
2018-May-21 17:00N 60°18' W 004°12'0 0.0 030 1023.0 5.4 2.2
2018-May-21 16:00N 60°18' W 004°12'0 0.0 020 1022.4 5.4 2.3
2018-May-21 15:00N 60°18' W 004°12'0 0.0 030 1022.0 2.2 2.1
2018-May-21 14:00N 60°18' W 004°12'0 0.0 010 1021.7 5.4 2.3
2018-May-21 13:00N 60°18' W 004°12'0 0.0 020 1021.4 5.4 2.2
2018-May-21 12:00N 60°18' W 004°12'0 0.0 010 1020.7 2.2 2.2
2018-May-21 11:00N 60°18' W 004°12'0 0.0 040 1020.2 2.2 2.3
2018-May-21 10:00N 60°18' W 004°12'0 0.0 030 1020.3 5.4 2.6
2018-May-21 09:00N 60°18' W 004°12'0 0.0 350 1020.1 5.4 2.5
2018-May-21 08:00N 60°18' W 004°12'0 0.0 030 1019.9 5.4 2.6
2018-May-21 07:00N 60°18' W 004°12'0 0.0 050 1019.4 5.4 2.6
2018-May-21 06:00N 60°18' W 004°12'0 0.0 010 1019.1 5.4 2.6
2018-May-21 05:00N 60°18' W 004°12'0 0.0 010 1018.4 5.4 2.6
2018-May-21 04:00N 60°18' W 004°12'0 0.0 360 1018.0 5.4 2.3
2018-May-21 03:00N 60°18' W 004°12'0 0.0 330 1017.4 5.4 2.4
2018-May-21 02:00N 60°18' W 004°12'0 0.0 320 1017.6 5.4 2.1
2018-May-21 01:00N 60°18' W 004°12'0 0.0 320 1017.410.8 2.3
2018-May-21 00:00N 60°18' W 004°12'0 0.0 310 1017.2 5.4 2.4
2018-May-20 23:00N 60°18' W 004°12'0 0.0 300 1016.710.8 2.2
2018-May-20 22:00N 60°18' W 004°12'0 0.0 310 1016.010.8 2.4
2018-May-20 21:00N 60°18' W 004°12'0 0.0 310 1015.310.8 2.4
2018-May-20 20:00N 60°18' W 004°12'0 0.0 310 1014.510.8 2.3
2018-May-20 19:00N 60°18' W 004°12'0 0.0 310 1013.510.8 2.3
2018-May-20 18:00N 60°18' W 004°12'0 0.0 360 1012.8 5.4 2.5
2018-May-20 17:00N 60°18' W 004°12'0 0.0 240 1011.9 2.2 2.4
2018-May-20 16:00N 60°18' W 004°12'0 0.0 230 1011.5 2.2 2.3
2018-May-20 15:00N 60°18' W 004°12'0 0.0 190 1011.1 2.2 2.4
2018-May-20 14:00N 60°18' W 004°12'0 0.0 190 1011.0 1.1 2.4
2018-May-20 13:00N 60°18' W 004°12'0 0.0 190 1010.8 1.1 2.5
2018-May-20 12:00N 60°18' W 004°12'0 0.0 190 1010.6 1.1 2.6
2018-May-20 11:00N 60°18' W 004°12'0 0.0 200 1010.3 1.1 2.9
2018-May-20 10:00N 60°18' W 004°12'0 0.0 200 1010.1 0.5 2.8
2018-May-20 09:00N 60°18' W 004°12'0 0.0 220 1010.4 2.2 2.9
2018-May-20 08:00N 60°18' W 004°12'0 0.0 220 1009.9 2.2 3.2
2018-May-20 07:00N 60°18' W 004°12'0 0.0 200 1009.7 2.2 3.2
2018-May-20 06:00N 60°18' W 004°12'0 0.0 190 1008.9 1.1 2.9
2018-May-20 05:00N 60°18' W 004°12'0 0.0 190 1008.3 2.2 2.7
2018-May-20 04:00N 60°18' W 004°12'0 0.0 180 1008.0 2.2 2.5
2018-May-20 03:00N 60°18' W 004°12'0 0.0 180 1007.9 2.2 2.3
2018-May-20 02:00N 60°18' W 004°12'0 0.0 170 1008.4 2.2 2.4
2018-May-20 01:00N 60°18' W 004°12'0 0.0 170 1008.9 2.2 2.3
2018-May-20 00:00N 60°18' W 004°12'0 0.0 220 1009.1 2.2 2.3
2018-May-19 23:00N 60°18' W 004°12'0 0.0 200 1009.7 2.2 2.2
2018-May-19 22:00N 60°18' W 004°12'0 0.0 190 1009.8 5.4 2.4
2018-May-19 21:00N 60°18' W 004°12'0 0.0 230 1010.4 5.4 2.5
2018-May-19 20:00N 60°18' W 004°12'0 0.0 190 1010.7 5.4 2.7
2018-May-19 19:00N 60°18' W 004°12'0 0.0 180 1011.1 5.4 2.5
2018-May-19 18:00N 60°18' W 004°12'0 0.0 190 1011.4 5.4
2018-May-19 17:00N 60°18' W 004°12'0 0.0 200 1012.8 5.4 2.7
2018-May-19 16:00N 60°18' W 004°12'0 0.0 220 1013.3 5.4 2.8
2018-May-19 15:00N 60°18' W 004°12'0 0.0 220 1013.9 5.4 2.7
2018-May-19 14:00N 60°18' W 004°12'0 0.0 210 1014.3 5.4 2.5
2018-May-19 13:00N 60°18' W 004°12'0 0.0 200 1014.8 5.4 2.5
2018-May-19 12:00N 60°18' W 004°12'0 0.0 190 1015.3 5.4 2.2
2018-May-19 11:00N 60°18' W 004°12'0 0.0 190 1016.0 5.4 2.2
2018-May-19 10:00N 60°18' W 004°12'0 0.0 200 1016.5 5.4 2.1
2018-May-19 09:00N 60°18' W 004°12'0 0.0 210 1017.1 5.4 2.1
2018-May-19 08:00N 60°18' W 004°12'0 0.0 200 1017.5 5.4 1.9
2018-May-19 07:00N 60°18' W 004°12'0 0.0 200 1018.0 1.1 1.9
2018-May-19 06:00N 60°18' W 004°12'0 0.0 200 1018.1 5.4 2.0
2018-May-19 05:00N 60°18' W 004°12'0 0.0 210 1018.2 2.2 1.8
2018-May-19 04:00N 60°18' W 004°12'0 0.0 170 1018.3 2.2 1.5
2018-May-19 03:00N 60°18' W 004°12'0 0.0 170 1018.4 2.2 1.5
2018-May-19 02:00N 60°18' W 004°12'0 0.0 010 1019.5 1.1 1.6
2018-May-19 01:00N 60°18' W 004°12'0 0.0 250 1019.9 0.3 1.5
2018-May-19 00:00N 60°18' W 004°12'0 0.0 250 1020.0 2.2 1.5
2018-May-18 23:00N 60°18' W 004°12'0 0.0 220 1020.1 5.4 1.7
2018-May-18 22:00N 60°18' W 004°12'0 0.0 150 1020.3 2.2 2.5
2018-May-18 21:00N 60°18' W 004°12'0 0.0 350 1020.4 1.1 2.5
2018-May-18 20:00N 60°18' W 004°12'0 0.0 280 1020.6 1.1 2.2
2018-May-18 19:00N 60°18' W 004°12'0 0.0 240 1020.3 0.3
2018-May-18 18:00N 60°18' W 004°12'0 0.0 240 1020.2 1.1 2.2
2018-May-18 17:00N 60°18' W 004°12'0 0.0 240 1020.4 2.2 2.0
2018-May-18 16:00N 60°18' W 004°12'0 0.0 240 1020.2 5.4 2.1
2018-May-18 15:00N 60°18' W 004°12'0 0.0 240 1020.3 5.4 1.9
2018-May-18 14:00N 60°18' W 004°12'0 0.0 230 1020.4 5.4 1.9
2018-May-18 13:00N 60°18' W 004°12'0 0.0 230 1020.4 5.4 1.7
2018-May-18 12:00N 60°18' W 004°12'0 0.0 220 1020.2 5.4 1.6
2018-May-18 11:00N 60°18' W 004°12'0 0.0 240 1020.4 5.4 1.6
2018-May-18 10:00N 60°18' W 004°12'0 0.0 230 1020.5 5.4 1.6
2018-May-18 09:00N 60°18' W 004°12'0 0.0 210 1020.4 5.4 1.7
2018-May-18 08:00N 60°18' W 004°12'0 0.0 200 1020.6 5.4 1.6
2018-May-18 07:00N 60°18' W 004°12'0 0.0 190 1020.7 5.4 1.7
2018-May-18 06:00N 60°18' W 004°12'0 0.0 200 1021.1 5.4 1.8
2018-May-18 05:00N 60°18' W 004°12'0 0.0 190 1021.4 5.4 1.8
2018-May-18 04:00N 60°18' W 004°12'0 0.0 190 1021.9 5.4 1.7
2018-May-18 03:00N 60°18' W 004°12'0 0.0 190 1022.3 5.4 1.8
2018-May-18 02:00N 60°18' W 004°12'0 0.0 180 1022.8 5.4 1.6
2018-May-18 01:00N 60°18' W 004°12'0 0.0 180 1023.4 5.4 1.6
2018-May-18 00:00N 60°18' W 004°12'0 0.0 190 1024.1 5.4 1.5
2018-May-17 23:00N 60°18' W 004°12'0 0.0 150 1024.7 5.4 1.5
2018-May-17 22:00N 60°18' W 004°12'0 0.0 150 1025.4 5.4
2018-May-17 21:00N 60°18' W 004°12'0 0.0 160 1025.8 5.4 1.6
2018-May-17 20:00N 60°18' W 004°12'0 0.0 170 1026.2 5.4 1.8
2018-May-17 19:00N 60°18' W 004°12'0 0.0 160 1026.5 5.4 1.8
2018-May-17 18:00N 60°18' W 004°12'0 0.0 160 1027.1 5.4 1.9
2018-May-17 17:00N 60°18' W 004°12'0 0.0 190 1027.6 5.4 1.9
2018-May-17 16:00N 60°18' W 004°12'0 0.0 210 1027.9 5.4 1.9
2018-May-17 15:00N 60°18' W 004°12'0 0.0 230 1028.2 5.4 2.0
2018-May-17 14:00N 60°18' W 004°12'0 0.0 220 1028.4 5.4 2.1
2018-May-17 13:00N 60°18' W 004°12'0 0.0 220 1028.4 5.4 2.1
2018-May-17 12:00N 60°18' W 004°12'0 0.0 230 1028.6 5.4 1.9
2018-May-17 11:00N 60°18' W 004°12'0 0.0 260 1029.2 5.4 2.0
2018-May-17 10:00N 60°18' W 004°12'0 0.0 300 1029.3 5.4 2.0
2018-May-17 09:00N 60°18' W 004°12'0 0.0 300 1029.5 5.4 2.0
2018-May-17 08:00N 60°18' W 004°12'0 0.0 290 1029.3 5.4 1.8
2018-May-17 07:00N 60°18' W 004°12'0 0.0 300 1029.1 5.4 1.8
2018-May-17 06:00N 60°18' W 004°12'0 0.0 330 1028.9 5.4 1.8
2018-May-17 05:00N 60°18' W 004°12'0 0.0 310 1028.7 5.4 1.9
2018-May-17 04:00N 60°18' W 004°12'0 0.0 300 1028.8 5.4 2.1
2018-May-17 03:00N 60°18' W 004°12'0 0.0 310 1028.8 5.4 1.9
2018-May-17 02:00N 60°18' W 004°12'   300 1029.1 5.4 1.8

Dump ship's entire track history